createdAt,value
2017-04-13T07:11:03.295Z,22.46
2017-04-13T07:11:44.014Z,22.65
2017-04-13T07:12:24.737Z,22.52
2017-04-13T07:13:05.452Z,22.61
2017-04-13T07:13:46.148Z,22.75
2017-04-13T07:14:26.978Z,22.77
2017-04-13T07:15:07.737Z,22.86
2017-04-13T07:15:48.514Z,22.85
2017-04-13T07:16:29.278Z,22.85
2017-04-13T07:17:10.061Z,22.97
2017-04-13T07:17:50.835Z,23.04
2017-04-13T07:18:31.564Z,23.05
2017-04-13T07:19:12.339Z,23.13
2017-04-13T07:19:53.026Z,23.1
2017-04-13T07:20:33.843Z,22.91
2017-04-13T07:21:14.525Z,22.86
2017-04-13T07:21:55.351Z,22.9
2017-04-13T07:22:36.079Z,22.85
2017-04-13T07:23:16.809Z,22.86
2017-04-13T07:23:57.602Z,22.65
2017-04-13T07:24:38.358Z,22.55
2017-04-13T07:25:19.093Z,22.52
2017-04-13T07:25:59.826Z,22.7
2017-04-13T07:26:40.638Z,22.67
2017-04-13T07:27:21.271Z,22.67
2017-04-13T07:28:02.071Z,22.73
2017-04-13T07:28:42.935Z,22.85
2017-04-13T07:29:23.666Z,22.85
2017-04-13T07:30:04.566Z,22.98
2017-04-13T07:30:45.313Z,22.83
2017-04-13T07:31:26.119Z,22.86
2017-04-13T07:32:06.755Z,23
2017-04-13T07:32:47.469Z,23.1
2017-04-13T07:33:28.193Z,23.1
2017-04-13T07:34:08.915Z,23.1
2017-04-13T07:34:49.673Z,23.15
2017-04-13T07:35:30.426Z,23.22
2017-04-13T07:36:11.131Z,23.22
2017-04-13T07:36:51.933Z,23.27
2017-04-13T07:37:32.769Z,23.12
2017-04-13T07:38:13.581Z,23.22
2017-04-13T07:38:54.299Z,23.22
2017-04-13T07:39:35.039Z,23.32
2017-04-13T07:41:25.006Z,23.38
2017-04-13T07:42:05.785Z,23.43
2017-04-13T07:42:46.551Z,23.42
2017-04-13T07:43:27.241Z,23.33
2017-04-13T07:44:08.079Z,23.25
2017-04-13T07:44:48.800Z,23.32
2017-04-13T07:45:29.587Z,23.1
2017-04-13T07:46:10.272Z,22.98
2017-04-13T07:46:51.002Z,22.92
2017-04-13T07:47:31.763Z,22.86
2017-04-13T07:48:12.583Z,22.94
2017-04-13T07:48:53.390Z,23.04
2017-04-13T07:49:34.091Z,22.95
2017-04-13T07:50:14.811Z,23
2017-04-13T07:50:55.471Z,22.95
2017-04-13T07:51:36.182Z,23.05
2017-04-13T07:52:16.991Z,22.94
2017-04-13T07:52:57.707Z,22.97
2017-04-13T07:53:38.541Z,22.98
2017-04-13T07:54:19.290Z,23.01
2017-04-13T07:55:15.043Z,23.02
2017-04-13T07:55:55.937Z,22.97
2017-04-13T07:56:36.713Z,22.97
2017-04-13T07:57:17.501Z,23.02
2017-04-13T07:57:58.263Z,22.94
2017-04-13T07:58:39.030Z,23.07
2017-04-13T07:59:19.795Z,23.07
2017-04-13T08:00:00.595Z,23.02
2017-04-13T08:00:41.320Z,23
2017-04-13T08:01:22.112Z,23.01
2017-04-13T08:02:02.789Z,22.98
2017-04-13T08:02:43.495Z,22.98
2017-04-13T08:03:24.239Z,22.97
2017-04-13T08:04:04.859Z,23.02
2017-04-13T08:04:45.688Z,23.16
2017-04-13T08:05:26.443Z,23.1
2017-04-13T08:06:07.198Z,23.1
2017-04-13T08:06:47.915Z,23.1
2017-04-13T08:07:28.662Z,23.13
2017-04-13T08:08:09.505Z,23.1
2017-04-13T08:08:50.219Z,23.13
2017-04-13T08:09:30.964Z,23.13
2017-04-13T08:10:11.663Z,23.12
2017-04-13T08:10:52.459Z,23.09
2017-04-13T08:11:33.182Z,23.1
2017-04-13T08:12:14.004Z,23.19
2017-04-13T08:12:54.763Z,23.13
2017-04-13T08:13:35.566Z,23.16
2017-04-13T08:14:16.294Z,23.15
2017-04-13T08:14:57.100Z,23.13
2017-04-13T08:15:37.852Z,23.1
2017-04-13T08:16:18.642Z,23.17
2017-04-13T08:16:59.402Z,23.15
2017-04-13T08:17:40.118Z,23.12
2017-04-13T08:18:20.913Z,23.17
2017-04-13T08:19:01.675Z,23.27
2017-04-13T08:19:42.423Z,23.23
2017-04-13T08:20:23.135Z,23.31
2017-04-13T08:21:03.972Z,23.23
2017-04-13T08:21:44.781Z,23.22
2017-04-13T08:22:25.533Z,23.25
2017-04-13T08:23:06.246Z,23.23
2017-04-13T08:23:47.023Z,23.22
2017-04-13T08:24:27.831Z,23.27
2017-04-13T08:25:08.530Z,23.25
2017-04-13T08:25:49.270Z,23.35
2017-04-13T08:26:30.058Z,23.28
2017-04-13T08:27:10.824Z,23.25
2017-04-13T08:27:51.584Z,23.22
2017-04-13T08:28:32.335Z,23.39
2017-04-13T08:29:13.141Z,23.36
2017-04-13T08:29:53.863Z,23.43
2017-04-13T08:30:34.603Z,23.4
2017-04-13T08:31:15.335Z,23.38
2017-04-13T08:31:56.137Z,23.39
2017-04-13T08:32:36.828Z,23.42
2017-04-13T08:33:17.646Z,23.4
2017-04-13T08:33:58.447Z,23.36
2017-04-13T08:34:39.134Z,23.36
2017-04-13T08:35:19.851Z,23.36
2017-04-13T08:36:00.639Z,23.38
2017-04-13T08:36:41.358Z,23.5
2017-04-13T08:37:22.242Z,23.55
2017-04-13T08:38:02.957Z,23.55
2017-04-13T08:38:43.791Z,23.54
2017-04-13T08:39:24.602Z,23.57
2017-04-13T08:40:05.390Z,23.55
2017-04-13T08:40:48.899Z,23.61
2017-04-13T08:41:29.690Z,23.57
2017-04-13T08:42:10.454Z,23.58
2017-04-13T08:42:51.252Z,23.53
2017-04-13T08:43:31.971Z,23.55
2017-04-13T08:44:12.806Z,23.51
2017-04-13T08:44:53.546Z,23.58
2017-04-13T08:45:34.335Z,23.54
2017-04-13T08:46:15.067Z,23.55
2017-04-13T08:46:55.848Z,23.58
2017-04-13T08:47:36.547Z,23.63
2017-04-13T08:48:17.294Z,23.6
2017-04-13T08:48:58.071Z,23.63
2017-04-13T08:49:38.845Z,23.69
2017-04-13T08:50:19.667Z,23.6
2017-04-13T08:51:00.360Z,23.55
2017-04-13T08:51:41.067Z,23.65
2017-04-13T08:52:21.803Z,23.7
2017-04-13T08:53:02.544Z,23.69
2017-04-13T08:53:43.310Z,23.79
2017-04-13T08:54:24.063Z,23.68
2017-04-13T08:55:04.866Z,23.72
2017-04-13T08:55:45.611Z,23.58
2017-04-13T08:56:26.434Z,23.68
2017-04-13T08:57:07.138Z,23.65
2017-04-13T08:57:47.854Z,23.65
2017-04-13T08:58:28.619Z,23.66
2017-04-13T08:59:09.324Z,23.65
2017-04-13T08:59:50.177Z,23.73
2017-04-13T09:00:30.972Z,23.7
2017-04-13T09:01:11.739Z,23.7
2017-04-13T09:01:52.494Z,23.63
2017-04-13T09:02:33.257Z,23.69
2017-04-13T09:03:13.983Z,23.63
2017-04-13T09:03:54.674Z,23.65
2017-04-13T09:04:35.423Z,23.72
2017-04-13T09:05:16.131Z,23.61
2017-04-13T09:05:56.906Z,23.55
2017-04-13T09:06:37.659Z,23.51
2017-04-13T09:07:18.395Z,23.68
2017-04-13T09:07:59.165Z,23.54
2017-04-13T09:08:39.880Z,23.63
2017-04-13T09:09:20.619Z,23.66
2017-04-13T09:10:01.375Z,23.58
2017-04-13T09:10:44.738Z,23.68
2017-04-13T09:11:25.471Z,23.57
2017-04-13T09:12:06.279Z,23.57
2017-04-13T09:12:46.988Z,23.58
2017-04-13T09:13:27.739Z,23.57
2017-04-13T09:14:08.460Z,23.61
2017-04-13T09:14:49.229Z,23.6
2017-04-13T09:15:30.080Z,23.53
2017-04-13T09:16:10.802Z,23.55
2017-04-13T09:16:51.539Z,23.53
2017-04-13T09:17:32.320Z,23.54
2017-04-13T09:18:13.018Z,23.54
2017-04-13T09:18:53.842Z,23.54
2017-04-13T09:19:34.611Z,23.54
2017-04-13T09:20:15.472Z,23.58
2017-04-13T09:20:56.229Z,23.57
2017-04-13T09:21:37.024Z,23.55
2017-04-13T09:22:17.740Z,23.48
2017-04-13T09:22:58.514Z,23.43
2017-04-13T09:23:39.273Z,23.47
2017-04-13T09:24:20.034Z,23.46
2017-04-13T09:25:00.804Z,23.46
2017-04-13T09:25:41.520Z,23.47
2017-04-13T09:26:22.249Z,23.46
2017-04-13T09:27:02.960Z,23.4
2017-04-13T09:27:43.805Z,23.51
2017-04-13T09:28:24.535Z,23.54
2017-04-13T09:29:05.261Z,23.47
2017-04-13T09:29:46.004Z,23.53
2017-04-13T09:30:26.838Z,23.46
2017-04-13T09:31:07.584Z,23.48
2017-04-13T09:31:48.312Z,23.51
2017-04-13T09:32:29.035Z,23.5
2017-04-13T09:33:09.755Z,23.46
2017-04-13T09:33:50.576Z,23.5
2017-04-13T09:34:31.329Z,23.47
2017-04-13T09:35:12.035Z,23.51
2017-04-13T09:35:52.868Z,23.48
2017-04-13T09:36:33.612Z,23.48
2017-04-13T09:37:14.347Z,23.48
2017-04-13T09:37:55.065Z,23.42
2017-04-13T09:38:35.882Z,23.47
2017-04-13T09:39:16.622Z,23.46
2017-04-13T09:39:57.478Z,23.48
2017-04-13T09:40:39.086Z,23.51
2017-04-13T09:41:19.791Z,23.42
2017-04-13T09:42:00.461Z,23.51
2017-04-13T09:42:41.223Z,23.51
2017-04-13T09:43:22.101Z,23.47
2017-04-13T09:44:02.903Z,23.53
2017-04-13T09:44:43.709Z,23.5
2017-04-13T09:45:24.365Z,23.47
2017-04-13T09:46:05.067Z,23.4
2017-04-13T09:46:45.809Z,23.43
2017-04-13T09:47:26.571Z,23.46
2017-04-13T09:48:07.305Z,23.54
2017-04-13T09:48:48.119Z,23.55
2017-04-13T09:49:28.915Z,23.51
2017-04-13T09:50:09.613Z,23.42
2017-04-13T09:50:50.346Z,23.42
2017-04-13T09:51:31.125Z,23.47
2017-04-13T09:52:11.873Z,23.47
2017-04-13T09:52:52.572Z,23.43
2017-04-13T09:53:33.435Z,23.39
2017-04-13T09:54:14.170Z,23.5
2017-04-13T09:54:54.982Z,23.42
2017-04-13T09:55:35.786Z,23.46
2017-04-13T09:56:16.594Z,23.47
2017-04-13T09:56:57.402Z,23.43
2017-04-13T09:57:38.145Z,23.47
2017-04-13T09:58:18.907Z,23.47
2017-04-13T09:58:59.662Z,23.48
2017-04-13T09:59:40.493Z,23.47
2017-04-13T10:00:21.189Z,23.46
2017-04-13T10:01:01.925Z,23.48
2017-04-13T10:01:42.690Z,23.42
2017-04-13T10:02:23.389Z,23.42
2017-04-13T10:03:04.240Z,23.47
2017-04-13T10:03:44.994Z,23.43
2017-04-13T10:04:25.667Z,23.4
2017-04-13T10:05:06.377Z,23.42
2017-04-13T10:05:47.166Z,23.42
2017-04-13T10:06:27.880Z,23.39
2017-04-13T10:07:08.607Z,23.39
2017-04-13T10:07:49.358Z,23.42
2017-04-13T10:08:30.115Z,23.4
2017-04-13T10:09:10.901Z,23.43
2017-04-13T10:09:51.726Z,23.4
2017-04-13T10:10:32.461Z,23.4
2017-04-13T10:11:13.132Z,23.43
2017-04-13T10:11:53.903Z,23.36
2017-04-13T10:12:34.614Z,23.36
2017-04-13T10:13:15.368Z,23.4
2017-04-13T10:13:56.156Z,23.38
2017-04-13T10:14:36.886Z,23.35
2017-04-13T10:15:17.632Z,23.39
2017-04-13T10:15:58.375Z,23.43
2017-04-13T10:16:39.222Z,23.39
2017-04-13T10:17:19.955Z,23.36
2017-04-13T10:18:00.735Z,23.43
2017-04-13T10:18:41.435Z,23.35
2017-04-13T10:19:22.242Z,23.38
2017-04-13T10:20:03.001Z,23.36
2017-04-13T10:20:43.841Z,23.42
2017-04-13T10:21:24.692Z,23.35
2017-04-13T10:22:05.493Z,23.46
2017-04-13T10:22:46.246Z,23.38
2017-04-13T10:23:27.021Z,23.39
2017-04-13T10:24:07.824Z,23.42
2017-04-13T10:24:48.474Z,23.4
2017-04-13T10:25:29.303Z,23.35
2017-04-13T10:26:10.026Z,23.38
2017-04-13T10:26:50.777Z,23.4
2017-04-13T10:27:31.550Z,23.33
2017-04-13T10:28:12.310Z,23.4
2017-04-13T10:28:53.089Z,23.39
2017-04-13T10:29:34.329Z,23.35
2017-04-13T10:30:14.549Z,23.4
2017-04-13T10:30:55.271Z,23.39
2017-04-13T10:31:36.114Z,23.31
2017-04-13T10:32:16.858Z,23.43
2017-04-13T10:32:57.563Z,23.33
2017-04-13T10:33:38.318Z,23.38
2017-04-13T10:34:19.063Z,23.35
2017-04-13T10:34:59.813Z,23.33
2017-04-13T10:35:40.634Z,23.35
2017-04-13T10:36:21.427Z,23.32
2017-04-13T10:37:02.173Z,23.35
2017-04-13T10:37:42.898Z,23.27
2017-04-13T10:38:23.641Z,23.25
2017-04-13T10:39:04.479Z,23.28
2017-04-13T10:39:45.231Z,23.38
2017-04-13T10:40:26.008Z,23.36
2017-04-13T10:41:06.761Z,23.28
2017-04-13T10:41:47.528Z,23.23
2017-04-13T10:42:28.314Z,23.28
2017-04-13T10:43:09.083Z,23.25
2017-04-13T10:43:49.833Z,23.32
2017-04-13T10:44:30.572Z,23.31
2017-04-13T10:45:11.267Z,23.32
2017-04-13T10:45:52.047Z,23.31
2017-04-13T10:46:32.750Z,23.28
2017-04-13T10:47:13.489Z,23.22
2017-04-13T10:47:54.220Z,23.33
2017-04-13T10:48:35.063Z,23.22
2017-04-13T10:49:15.788Z,23.25
2017-04-13T10:49:56.500Z,23.23
2017-04-13T10:50:37.283Z,23.25
2017-04-13T10:51:18.084Z,23.22
2017-04-13T10:51:58.801Z,23.23
2017-04-13T10:52:39.503Z,23.22
2017-04-13T10:53:20.283Z,23.27
2017-04-13T10:54:00.950Z,23.22
2017-04-13T10:54:41.727Z,23.27
2017-04-13T10:55:22.462Z,23.25
2017-04-13T10:56:03.215Z,23.27
2017-04-13T10:56:43.988Z,23.2
2017-04-13T10:57:24.778Z,23.22
2017-04-13T10:58:05.649Z,23.28
2017-04-13T10:58:46.389Z,23.27
2017-04-13T10:59:27.069Z,23.25
2017-04-13T11:00:07.834Z,23.2
2017-04-13T11:00:48.538Z,23.28
2017-04-13T11:01:29.311Z,23.19
2017-04-13T11:02:10.103Z,23.32
2017-04-13T11:02:50.839Z,23.25
2017-04-13T11:03:31.599Z,23.31
2017-04-13T11:04:12.354Z,23.22
2017-04-13T11:04:53.134Z,23.19
2017-04-13T11:05:33.893Z,23.31
2017-04-13T11:06:14.617Z,23.25
2017-04-13T11:06:55.366Z,23.22
2017-04-13T11:07:36.848Z,23.23
2017-04-13T11:08:17.553Z,23.23
2017-04-13T11:08:58.288Z,23.31
2017-04-13T11:09:39.101Z,23.19
2017-04-13T11:10:19.865Z,23.27
2017-04-13T11:11:00.558Z,23.22
2017-04-13T11:11:41.316Z,23.22
2017-04-13T11:12:22.003Z,23.23
2017-04-13T11:13:02.739Z,23.27
2017-04-13T11:13:43.418Z,23.2
2017-04-13T11:14:24.182Z,23.25
2017-04-13T11:15:04.851Z,23.17
2017-04-13T11:15:45.654Z,23.32
2017-04-13T11:16:26.396Z,23.2
2017-04-13T11:17:07.215Z,23.25
2017-04-13T11:17:47.982Z,23.28
2017-04-13T11:18:28.738Z,23.28
2017-04-13T11:19:09.467Z,23.2
2017-04-13T11:19:50.197Z,23.23
2017-04-13T11:20:30.964Z,23.22
2017-04-13T11:21:11.751Z,23.19
2017-04-13T11:21:52.506Z,23.2
2017-04-13T11:22:33.353Z,23.2
2017-04-13T11:23:14.881Z,23.23
2017-04-13T11:23:54.803Z,23.17
2017-04-13T11:24:35.536Z,23.27
2017-04-13T11:25:16.308Z,23.22
2017-04-13T11:25:57.050Z,23.22
2017-04-13T11:26:37.796Z,23.19
2017-04-13T11:27:18.542Z,23.15
2017-04-13T11:27:59.335Z,23.2
2017-04-13T11:28:40.004Z,23.2
2017-04-13T11:29:20.823Z,23.16
2017-04-13T11:30:01.500Z,23.17
2017-04-13T11:30:42.301Z,23.2
2017-04-13T11:31:23.060Z,23.23
2017-04-13T11:32:03.894Z,23.12
2017-04-13T11:32:44.644Z,23.1
2017-04-13T11:33:25.420Z,23.19
2017-04-13T11:34:06.168Z,23.16
2017-04-13T11:34:46.939Z,23.17
2017-04-13T11:35:27.695Z,23.12
2017-04-13T11:36:08.471Z,23.13
2017-04-13T11:36:49.264Z,23.17
2017-04-13T11:37:29.987Z,23.19
2017-04-13T11:38:10.828Z,23.12
2017-04-13T11:38:51.511Z,23.23
2017-04-13T11:39:32.285Z,23.15
2017-04-13T11:40:13.088Z,23.13
2017-04-13T11:40:53.870Z,23.13
2017-04-13T11:41:34.570Z,23.19
2017-04-13T11:42:15.405Z,23.2
2017-04-13T11:42:56.178Z,23.23
2017-04-13T11:43:36.939Z,23.17
2017-04-13T11:44:17.663Z,23.15
2017-04-13T11:44:58.482Z,23.22
2017-04-13T11:45:39.276Z,23.13
2017-04-13T11:46:19.992Z,23.12
2017-04-13T11:47:00.689Z,23.16
2017-04-13T11:47:41.516Z,23.22
2017-04-13T11:48:22.221Z,23.15
2017-04-13T11:49:03.062Z,23.17
2017-04-13T11:49:43.777Z,23.13
2017-04-13T11:50:24.496Z,23.17
2017-04-13T11:51:05.396Z,23.16
2017-04-13T11:51:46.242Z,23.17
2017-04-13T11:52:27.059Z,23.23
2017-04-13T11:53:07.841Z,23.16
2017-04-13T11:53:48.572Z,23.17
2017-04-13T11:54:29.346Z,23.13
2017-04-13T11:55:10.156Z,23.1
2017-04-13T11:55:50.952Z,23.19
2017-04-13T11:56:31.751Z,23.12
2017-04-13T11:57:12.490Z,23.16
2017-04-13T11:57:53.215Z,23.15
2017-04-13T11:58:33.961Z,23.15
2017-04-13T11:59:14.711Z,23.19
2017-04-13T11:59:55.481Z,23.15
2017-04-13T12:00:36.371Z,23.19
2017-04-13T12:01:17.129Z,23.16
2017-04-13T12:01:57.845Z,23.16
2017-04-13T12:02:38.558Z,23.16
2017-04-13T12:03:19.342Z,23.16
2017-04-13T12:04:00.085Z,23.12
2017-04-13T12:04:40.863Z,23.1
2017-04-13T12:05:21.676Z,23.13
2017-04-13T12:06:02.397Z,23.12
2017-04-13T12:06:43.135Z,23.2
2017-04-13T12:07:23.902Z,23.1
2017-04-13T12:08:04.662Z,23.12
2017-04-13T12:08:45.309Z,23.16
2017-04-13T12:09:26.121Z,23.1
2017-04-13T12:10:06.794Z,23.07
2017-04-13T12:10:47.565Z,23.07
2017-04-13T12:11:28.289Z,23.04
2017-04-13T12:12:09.085Z,23.07
2017-04-13T12:12:49.857Z,23.07
2017-04-13T12:13:30.509Z,23.05
2017-04-13T12:14:11.262Z,23.04
2017-04-13T12:14:51.996Z,23.05
2017-04-13T12:15:32.812Z,23.1
2017-04-13T12:16:13.533Z,23.05
2017-04-13T12:16:54.295Z,23.04
2017-04-13T12:17:34.975Z,23.09
2017-04-13T12:18:15.720Z,23.1
2017-04-13T12:18:56.426Z,23.07
2017-04-13T12:19:37.199Z,23.09
2017-04-13T12:20:17.929Z,23.07
2017-04-13T12:20:58.689Z,23
2017-04-13T12:21:39.476Z,22.98
2017-04-13T12:22:20.209Z,22.97
2017-04-13T12:23:01.026Z,23.02
2017-04-13T12:23:41.812Z,23.02
2017-04-13T12:24:22.559Z,22.94
2017-04-13T12:25:03.325Z,23.09
2017-04-13T12:25:44.012Z,23
2017-04-13T12:26:24.871Z,22.97
2017-04-13T12:27:05.543Z,23
2017-04-13T12:27:46.377Z,22.94
2017-04-13T12:28:27.162Z,23.04
2017-04-13T12:29:07.875Z,23
2017-04-13T12:29:48.622Z,22.98
2017-04-13T12:30:29.393Z,23
2017-04-13T12:31:10.103Z,22.98
2017-04-13T12:31:50.890Z,23
2017-04-13T12:32:31.582Z,22.98
2017-04-13T12:33:12.389Z,23.01
2017-04-13T12:33:53.147Z,22.98
2017-04-13T12:34:33.982Z,22.97
2017-04-13T12:35:14.784Z,22.98
2017-04-13T12:35:55.521Z,22.92
2017-04-13T12:36:36.340Z,22.98
2017-04-13T12:37:17.095Z,22.98
2017-04-13T12:37:57.806Z,22.97
2017-04-13T12:38:38.565Z,23
2017-04-13T12:39:19.306Z,22.98
2017-04-13T12:40:00.085Z,22.97
2017-04-13T12:40:40.785Z,22.88
2017-04-13T12:41:21.552Z,22.94
2017-04-13T12:42:02.276Z,22.91
2017-04-13T12:42:43.040Z,22.88
2017-04-13T12:43:23.893Z,22.92
2017-04-13T12:44:04.640Z,22.91
2017-04-13T12:44:45.381Z,22.95
2017-04-13T12:45:26.162Z,22.94
2017-04-13T12:46:07.527Z,22.88
2017-04-13T12:46:48.217Z,22.82
2017-04-13T12:47:28.990Z,22.92
2017-04-13T12:48:09.658Z,22.85
2017-04-13T12:48:50.419Z,22.88
2017-04-13T12:49:31.189Z,22.92
2017-04-13T12:50:11.996Z,22.85
2017-04-13T12:50:52.820Z,22.83
2017-04-13T12:51:33.517Z,22.88
2017-04-13T12:52:14.280Z,22.86
2017-04-13T12:52:55.056Z,22.91
2017-04-13T12:53:35.803Z,22.86
2017-04-13T12:54:16.495Z,22.88
2017-04-13T12:54:57.230Z,22.86
2017-04-13T12:55:38.002Z,22.91
2017-04-13T12:56:18.760Z,22.83
2017-04-13T12:56:59.519Z,22.86
2017-04-13T12:57:40.293Z,22.88
2017-04-13T12:58:21.053Z,22.83
2017-04-13T12:59:01.817Z,22.85
2017-04-13T12:59:42.517Z,22.8
2017-04-13T13:00:23.319Z,22.83
2017-04-13T13:01:04.048Z,22.88
2017-04-13T13:01:44.802Z,22.82
2017-04-13T13:02:25.583Z,22.82
2017-04-13T13:03:06.345Z,22.88
2017-04-13T13:03:47.039Z,22.83
2017-04-13T13:04:27.765Z,22.85
2017-04-13T13:05:08.541Z,22.85
2017-04-13T13:05:49.266Z,22.91
2017-04-13T13:06:29.973Z,22.85
2017-04-13T13:07:10.708Z,22.86
2017-04-13T13:07:51.430Z,22.86
2017-04-13T13:08:32.237Z,22.83
2017-04-13T13:09:12.961Z,22.86
2017-04-13T13:09:53.686Z,22.77
2017-04-13T13:10:34.458Z,22.83
2017-04-13T13:11:15.259Z,22.83
2017-04-13T13:11:56.014Z,22.8
2017-04-13T13:12:36.695Z,22.79
2017-04-13T13:13:17.412Z,22.76
2017-04-13T13:13:58.109Z,22.76
2017-04-13T13:14:38.932Z,22.8
2017-04-13T13:15:19.710Z,22.83
2017-04-13T13:16:00.449Z,22.76
2017-04-13T13:16:41.201Z,22.73
2017-04-13T13:17:22.005Z,22.77
2017-04-13T13:18:02.759Z,22.77
2017-04-13T13:18:43.457Z,22.85
2017-04-13T13:19:24.311Z,22.76
2017-04-13T13:20:05.170Z,22.77
2017-04-13T13:20:45.965Z,22.77
2017-04-13T13:21:26.708Z,22.76
2017-04-13T13:22:07.452Z,22.76
2017-04-13T13:22:48.293Z,22.75
2017-04-13T13:23:29.000Z,22.76
2017-04-13T13:24:09.672Z,22.79
2017-04-13T13:24:50.399Z,22.76
2017-04-13T13:25:31.307Z,22.77
2017-04-13T13:26:12.051Z,22.76
2017-04-13T13:26:52.878Z,22.82
2017-04-13T13:27:33.599Z,22.79
2017-04-13T13:28:14.403Z,22.77
2017-04-13T13:28:55.147Z,22.72
2017-04-13T13:29:35.827Z,22.72
2017-04-13T13:30:16.630Z,22.83
2017-04-13T13:30:58.276Z,22.73
2017-04-13T13:31:39.060Z,22.8
2017-04-13T13:32:19.731Z,22.82
2017-04-13T13:33:00.494Z,22.76
2017-04-13T13:33:41.211Z,22.79
2017-04-13T13:34:21.919Z,22.8
2017-04-13T13:35:02.646Z,22.82
2017-04-13T13:35:43.384Z,22.65
2017-04-13T13:36:24.182Z,22.79
2017-04-13T13:37:04.930Z,22.76
2017-04-13T13:37:45.651Z,22.86
2017-04-13T13:38:26.454Z,22.82
2017-04-13T13:39:07.243Z,22.72
2017-04-13T13:39:48.018Z,22.82
2017-04-13T13:40:28.801Z,22.79
2017-04-13T13:42:08.784Z,22.76
2017-04-13T13:42:49.549Z,22.73
2017-04-13T13:43:30.246Z,22.85
2017-04-13T13:44:11.013Z,22.73
2017-04-13T13:44:51.783Z,22.68
2017-04-13T13:45:32.506Z,22.83
2017-04-13T13:46:13.349Z,22.77
2017-04-13T13:46:54.164Z,22.73
2017-04-13T13:47:34.974Z,22.73
2017-04-13T13:48:15.733Z,22.7
2017-04-13T13:48:56.508Z,22.72
2017-04-13T13:49:37.224Z,22.76
2017-04-13T13:50:18.015Z,22.7
2017-04-13T13:50:58.773Z,22.65
2017-04-13T13:51:39.482Z,22.64
2017-04-13T13:52:20.226Z,22.65
2017-04-13T13:53:00.955Z,22.67
2017-04-13T13:53:41.674Z,22.67
2017-04-13T13:54:22.342Z,22.67
2017-04-13T13:55:03.042Z,22.72
2017-04-13T13:55:43.898Z,22.7
2017-04-13T13:56:24.649Z,22.68
2017-04-13T13:57:05.411Z,22.68
2017-04-13T13:57:46.117Z,22.68
2017-04-13T13:58:26.821Z,22.72
2017-04-13T13:59:07.677Z,22.72
2017-04-13T13:59:48.361Z,22.62
2017-04-13T14:00:29.110Z,22.64
2017-04-13T14:01:09.882Z,22.67
2017-04-13T14:01:50.623Z,22.68
2017-04-13T14:02:31.453Z,22.6
2017-04-13T14:03:12.217Z,22.67
2017-04-13T14:03:52.971Z,22.61
2017-04-13T14:04:33.710Z,22.72
2017-04-13T14:05:14.504Z,22.7
2017-04-13T14:05:55.242Z,22.7
2017-04-13T14:06:36.078Z,22.62
2017-04-13T14:07:16.832Z,22.7
2017-04-13T14:07:57.591Z,22.68
2017-04-13T14:08:38.351Z,22.7
2017-04-13T14:09:19.071Z,22.68
2017-04-13T14:09:59.796Z,22.7
2017-04-13T14:10:40.548Z,22.65
2017-04-13T14:11:36.164Z,22.65
2017-04-13T14:12:16.937Z,22.67
2017-04-13T14:12:57.707Z,22.64
2017-04-13T14:13:38.421Z,22.7
2017-04-13T14:14:19.203Z,22.67
2017-04-13T14:15:00.139Z,22.68
2017-04-13T14:15:40.882Z,22.68
2017-04-13T14:16:21.570Z,22.67
2017-04-13T14:17:02.304Z,22.61
2017-04-13T14:17:43.068Z,22.67
2017-04-13T14:18:23.831Z,22.68
2017-04-13T14:19:04.552Z,22.67
2017-04-13T14:19:45.299Z,22.68
2017-04-13T14:20:26.089Z,22.65
2017-04-13T14:21:06.856Z,22.68
2017-04-13T14:21:47.652Z,22.64
2017-04-13T14:22:28.369Z,22.58
2017-04-13T14:23:09.196Z,22.67
2017-04-13T14:23:49.916Z,22.67
2017-04-13T14:24:30.733Z,22.67
2017-04-13T14:25:11.501Z,22.67
2017-04-13T14:25:52.216Z,22.68
2017-04-13T14:26:33.001Z,22.67
2017-04-13T14:27:13.653Z,22.68
2017-04-13T14:27:54.432Z,22.62
2017-04-13T14:28:35.266Z,22.67
2017-04-13T14:29:16.074Z,22.57
2017-04-13T14:29:56.829Z,22.55
2017-04-13T14:30:37.623Z,22.65
2017-04-13T14:31:18.339Z,22.65
2017-04-13T14:31:59.090Z,22.58
2017-04-13T14:32:39.802Z,22.55
2017-04-13T14:33:20.549Z,22.58
2017-04-13T14:34:01.320Z,22.58
2017-04-13T14:34:42.040Z,22.55
2017-04-13T14:35:22.840Z,22.64
2017-04-13T14:36:03.623Z,22.55
2017-04-13T14:36:44.390Z,22.52
2017-04-13T14:37:25.184Z,22.55
2017-04-13T14:38:06.013Z,22.64
2017-04-13T14:38:46.702Z,22.54
2017-04-13T14:39:27.503Z,22.61
2017-04-13T14:40:08.232Z,22.62
2017-04-13T14:40:48.980Z,22.57
2017-04-13T14:41:32.481Z,22.64
2017-04-13T14:42:13.224Z,22.52
2017-04-13T14:42:53.929Z,22.62
2017-04-13T14:43:34.780Z,22.57
2017-04-13T14:44:15.585Z,22.62
2017-04-13T14:44:56.393Z,22.61
2017-04-13T14:45:37.075Z,22.6
2017-04-13T14:46:17.814Z,22.67
2017-04-13T14:46:58.633Z,22.55
2017-04-13T14:47:39.425Z,22.65
2017-04-13T14:48:20.119Z,22.62
2017-04-13T14:49:00.843Z,22.6
2017-04-13T14:49:41.561Z,22.62
2017-04-13T14:50:22.328Z,22.61
2017-04-13T14:51:03.176Z,22.58
2017-04-13T14:51:44.043Z,22.6
2017-04-13T14:52:24.783Z,22.58
2017-04-13T14:53:05.542Z,22.52
2017-04-13T14:53:46.292Z,22.52
2017-04-13T14:54:27.024Z,22.65
2017-04-13T14:55:07.736Z,22.6
2017-04-13T14:55:48.502Z,22.62
2017-04-13T14:56:29.201Z,22.62
2017-04-13T14:57:10.003Z,22.58
2017-04-13T14:57:50.796Z,22.62
2017-04-13T14:58:31.533Z,22.62
2017-04-13T14:59:12.270Z,22.57
2017-04-13T14:59:53.012Z,22.58
2017-04-13T15:00:33.747Z,22.55
2017-04-13T15:01:14.489Z,22.6
2017-04-13T15:01:55.290Z,22.58
2017-04-13T15:02:36.023Z,22.68
2017-04-13T15:03:16.799Z,22.54
2017-04-13T15:03:57.576Z,22.57
2017-04-13T15:04:38.326Z,22.54
2017-04-13T15:05:19.077Z,22.6
2017-04-13T15:05:59.828Z,22.54
2017-04-13T15:06:40.571Z,22.6
2017-04-13T15:07:21.252Z,22.54
2017-04-13T15:08:02.041Z,22.58
2017-04-13T15:08:42.869Z,22.6
2017-04-13T15:09:23.575Z,22.61
2017-04-13T15:10:04.481Z,22.61
2017-04-13T15:10:45.197Z,22.64
2017-04-13T15:11:26.016Z,22.61
2017-04-13T15:13:15.714Z,22.62
2017-04-13T15:13:56.449Z,22.54
2017-04-13T15:14:37.233Z,22.54
2017-04-13T15:15:17.969Z,22.6
2017-04-13T15:15:58.708Z,22.61
2017-04-13T15:16:39.371Z,22.57
2017-04-13T15:17:20.161Z,22.61
2017-04-13T15:18:00.866Z,22.61
2017-04-13T15:18:41.623Z,22.54
2017-04-13T15:19:22.336Z,22.64
2017-04-13T15:20:03.045Z,22.52
2017-04-13T15:20:43.878Z,22.54
2017-04-13T15:21:24.613Z,22.51
2017-04-13T15:22:05.465Z,22.54
2017-04-13T15:22:46.234Z,22.58
2017-04-13T15:23:26.983Z,22.6
2017-04-13T15:24:07.726Z,22.52
2017-04-13T15:24:48.501Z,22.51
2017-04-13T15:25:29.345Z,22.47
2017-04-13T15:26:10.080Z,22.46
2017-04-13T15:26:50.829Z,22.55
2017-04-13T15:27:31.511Z,22.49
2017-04-13T15:28:12.227Z,22.51
2017-04-13T15:28:52.954Z,22.55
2017-04-13T15:29:33.754Z,22.49
2017-04-13T15:30:14.511Z,22.51
2017-04-13T15:30:55.229Z,22.46
2017-04-13T15:31:35.997Z,22.51
2017-04-13T15:32:16.685Z,22.39
2017-04-13T15:32:57.417Z,22.57
2017-04-13T15:33:38.146Z,22.43
2017-04-13T15:34:18.814Z,22.51
2017-04-13T15:34:59.555Z,22.47
2017-04-13T15:35:40.284Z,22.55
2017-04-13T15:36:21.045Z,22.47
2017-04-13T15:37:01.769Z,22.47
2017-04-13T15:37:42.484Z,22.49
2017-04-13T15:38:23.208Z,22.47
2017-04-13T15:39:03.973Z,22.52
2017-04-13T15:39:44.751Z,22.45
2017-04-13T15:40:25.539Z,22.47
2017-04-13T15:41:06.336Z,22.45
2017-04-13T15:41:47.059Z,22.43
2017-04-13T15:42:27.848Z,22.47
2017-04-13T15:43:08.631Z,22.39
2017-04-13T15:43:49.432Z,22.43
2017-04-13T15:44:30.166Z,22.43
2017-04-13T15:45:10.898Z,22.46
2017-04-13T15:45:51.655Z,22.42
2017-04-13T15:46:32.469Z,22.4
2017-04-13T15:47:13.254Z,22.49
2017-04-13T15:47:54.060Z,22.47
2017-04-13T15:48:34.829Z,22.43
2017-04-13T15:49:15.670Z,22.45
2017-04-13T15:49:56.438Z,22.51
2017-04-13T15:50:37.099Z,22.47
2017-04-13T15:51:17.848Z,22.47
2017-04-13T15:51:58.636Z,22.51
2017-04-13T15:52:39.284Z,22.45
2017-04-13T15:53:20.084Z,22.49
2017-04-13T15:54:00.829Z,22.51
2017-04-13T15:54:41.619Z,22.51
2017-04-13T15:55:22.395Z,22.46
2017-04-13T15:56:03.210Z,22.46
2017-04-13T15:56:43.903Z,22.43
2017-04-13T15:57:24.701Z,22.46
2017-04-13T15:58:05.448Z,22.45
2017-04-13T15:58:46.210Z,22.42
2017-04-13T15:59:26.989Z,22.47
2017-04-13T16:00:07.722Z,22.51
2017-04-13T16:00:48.455Z,22.49
2017-04-13T16:01:29.289Z,22.54
2017-04-13T16:02:10.127Z,22.43